Tiempo atmosférico en la estación meteorológica de Bilbao Aeropuerto, Bizkaia (42 m.)



Fecha
DESCASC
Temp. máxima en grados centígrados (hora)
DESCASC
Temp. mínima en grados centígrados (hora)
DESCASC
Temp. media en grados centígrados
DESCASC
Racha de viento máxima en m/sg (hora)
DESCASC
Velocidad máxima media en intervalos de 10 minutos(hora)
DESCASC
Precipitaciones diarias en mm
DESCASC
Precipitaciones de 00:00 a 06:00 en mm
DESCASC
Precipitaciones de 06:00 a 12:00 en mm
DESCASC
Precipitaciones de 12:00 a 18:00 en mm
DESCASC
Precipitaciones de 18:00 a 24:00 en mm
DESCASC
20-06-2018 24.8 (14:30) 14.7 (05:50) 19.7 8.33 (15:30) 5.56 (14:50) -- 0 0 -- 0
19-06-2018 21.4 (17:20) 15.9 (04:40) 18.6 10.83 (18:00) 4.72 (16:40) 0.2 0 0.2 0 0
18-06-2018 21.2 (15:20) 12.7 (03:40) 17 8.89 (17:50) 6.11 (17:50) 0 0 0 0 0
17-06-2018 22.1 (16:00) 14.1 (02:10) 18.1 7.78 (14:40) 4.72 (17:50) 0 0 0 0 0
16-06-2018 21.4 (16:50) 15.3 (07:10) 18.3 8.89 (17:00) 5 (19:10) 0.4 0.4 0 0 0
15-06-2018 21.7 (15:50) 12.4 (02:50) 17.1 8.33 (15:50) 5.28 (16:50) 1.5 0 0 0 1.5
14-06-2018 21.9 (18:40) 12.4 (00:00) 17.1 7.22 (15:30) 4.44 (19:20) 0.1 0 0 0.1 0
13-06-2018 20.5 (17:00) 14.2 (23:59) 17.3 13.33 (02:30) 8.89 (12:10) 0 0 0 0 0
12-06-2018 20.4 (13:00) 16.2 (01:50) 18.3 16.94 (11:50) 11.11 (11:50) 3.2 1.8 1.4 0 0
11-06-2018 20.9 (19:00) 14.7 (03:00) 17.8 10.28 (10:30) 5.83 (13:40) 8.5 0.7 7.8 0 0
10-06-2018 23.5 (13:00) 13.1 (00:00) 18.3 6.67 (14:30) 5 (14:40) 0.2 0 0 0.1 0.1
09-06-2018 24 (13:20) 14.2 (00:00) 19.1 9.17 (12:50) 4.44 (14:50) 2.2 0.7 0 0 1.5
08-06-2018 28 (16:10) 16.1 (00:00) 22.1 8.33 (16:40) 6.11 (17:50) 2.7 0 0 0.1 2.6
07-06-2018 25.4 (14:30) 15.7 (00:00) 20.5 9.17 (13:40) 6.11 (14:40) 0.1 0 0.1 0 0
06-06-2018 21.2 (15:10) 10.4 (00:00) 15.8 10.28 (17:50) 6.94 (17:50) 0 0 0 0 0
05-06-2018 19.9 (15:00) 12.6 (00:00) 16.3 7.22 (16:40) 5 (16:40) 2.5 0 2.5 0 0
04-06-2018 18.9 (13:20) 14.2 (00:00) 16.5 9.17 (02:30) 5 (02:40) 5.2 1.2 0 0 4
03-06-2018 21.9 (13:00) 16.2 (00:00) 19.1 8.33 (13:50) 5.83 (13:50) 13.8 0 0 13 0.8
02-06-2018 26.1 (16:20) 16 (00:00) 21.1 8.33 (17:00) 5 (16:50) 0.5 0.2 0.3 0 0
01-06-2018 19.5 (18:20) 14.1 (00:00) 16.8 5.83 (19:20) 3.61 (18:50) 1.5 0 0.4 0 1.1
31-05-2018 20.1 (18:30) 14.5 (23:40) 17.3 6.67 (16:10) 3.89 (15:30) 0.6 0 0.6 0 0
30-05-2018 18.8 (15:10) 14.8 (00:00) 16.8 6.11 (16:00) 4.17 (15:50) 0 0 0 0 0
29-05-2018 20.4 (14:10) 13.5 (00:00) 16.9 7.78 (14:50) 5 (17:00) 0 0 0 0 0
28-05-2018 16.6 (17:00) 14.6 (00:00) 15.6 7.78 (16:00) 4.72 (16:10) 5.6 0.9 4.6 0.1 0
27-05-2018 19 (13:10) 13.5 (00:00) 16.3 7.22 (13:50) 4.72 (13:40) 0 0 0 0 0
26-05-2018 22.8 (15:30) 13.8 (00:00) 18.3 13.89 (16:10) 9.17 (16:20) 4.2 1.2 1 2 0
25-05-2018 -- (--) -- (--) -- -- (--) -- (--) -- -- -- 0.1 5.6
24-05-2018 23.5 (12:20) 15.5 (00:00) 19.5 8.89 (13:50) 6.67 (16:40) 0.4 0 0 0 0.4
23-05-2018 23.8 (17:30) 12.7 (00:00) 18.2 6.67 (15:30) 4.17 (18:50) 0 0 0 0 0
22-05-2018 22.8 (14:40) 10.3 (00:00) 16.5 8.89 (07:00) 5.28 (15:40) 0 0 0 0 0

Gráficas

Temp. máximas Temp. mínimas Temp. medias Precipitaciones Rachas de viento máximas Velocidades máximas media en intervalos de 10 minutos

Datos horarios

Fecha y hora oficial Temperatura (ºC) Velocidad del viento (km/h) Dirección del viento Racha (km/h) Dirección de racha Precipitación (mm) Presión (hPa) Tendencia (hPa) Humedad (%)
2018-06-20 23:00:00 20 9 Norte 15 Noroeste 0 1015.8 1.6 88
2018-06-20 22:00:00 20.1 10 Norte 17 Noroeste 0 1015 1.1 88
2018-06-20 21:00:00 20.3 8 Norte 21 Norte 0 1014.3 0.2 86
2018-06-20 20:00:00 20.9 13 Norte 21 Noroeste 0 1014.2 0.3 84
2018-06-20 19:00:00 21.7 15 Noroeste 26 Noroeste 0 1013.9 0.1 82
2018-06-20 18:00:00 22.3 18 Noroeste 28 Noroeste 0 1014.1 0.3 79
2018-06-20 17:00:00 23.9 19 Noroeste 28 Noroeste 0 1013.9 0.1 75
2018-06-20 16:00:00 24.4 19 Noroeste 30 Noroeste 0 1013.8 -0.2 74
2018-06-20 15:00:00 24.3 18 Noroeste 28 Noroeste 0 1013.8 -0.2 74
2018-06-20 14:00:00 24.2 5 Oeste 26 Oeste -- 1013.8 -0.2 73
2018-06-20 13:00:00 24.3 15 Noroeste 24 Noroeste 0 1014 -0.3 74
2018-06-20 12:00:00 24.2 13 Noroeste 21 Oeste 0 1014 -0.3 75
2018-06-20 11:00:00 22.6 5 Oeste 11 Norte 0 1014 -0.1 75
2018-06-20 10:00:00 20.8 5 Noroeste 11 Oeste 0 1014.3 0.4 81
2018-06-20 09:00:00 20.1 0 Calma 8 Norte 0 1014.3 0.6 82
2018-06-20 08:00:00 17.2 5 Sudeste 17 Este 0 1014.1 0.1 91
2018-06-20 07:00:00 15.1 7 Este 9 Este 0 1013.9 -0.4 96
2018-06-20 06:00:00 14.8 7 Este 9 Este 0 1013.7 -1.1 96
2018-06-20 05:00:00 15 7 Este 8 Este 0 1014 -1.4 95
2018-06-20 04:00:00 15.3 7 Este 11 Este 0 1014.3 -1.5 95
2018-06-20 03:00:00 15.9 7 Este 8 Este 0 1014.8 -1.5 93
2018-06-20 02:00:00 16.5 5 Este 8 Este 0 1015.4 -0.9 90
2018-06-20 01:00:00 17.5 5 Este 11 Este 0 1015.8 -0.2 87
2018-06-20 00:00:00 19.2 4 Este 8 Nordeste 0 1016.3 0.1 81
2018-06-19 23:00:00 19.4 5 Este 21 Este 0 1016.3 0 79
2018-06-19 22:00:00 19.4 8 Sudeste 18 Este 0 1016 -0.5 81
2018-06-19 21:00:00 20 13 Este 24 Nordeste 0 1016.2 -1 77
2018-06-19 20:00:00 21.2 12 Este 26 Nordeste 0 1016.3 -1.4 75
2018-06-19 19:00:00 21.1 11 Este 28 Nordeste 0 1016.5 -1.7 74
2018-06-19 18:00:00 21.2 15 Este 39 Este 0 1017.2 -1.5 73
2018-06-19 17:00:00 21.3 14 Este 33 Nordeste 0 1017.7 -1.5 73
2018-06-19 16:00:00 20.8 16 Este 35 Este 0 1018.2 -1.5 75
2018-06-19 15:00:00 20.2 11 Este 18 Este 0 1018.7 -1.3 77
2018-06-19 14:00:00 19.7 10 Este 18 Nordeste 0 1019.2 -1.2 80
2018-06-19 13:00:00 19.4 7 Este 13 Nordeste 0 1019.7 -1.2 82
2018-06-19 12:00:00 18.2 2 Noroeste 9 Oeste 0.1 1020 -1.1 89
2018-06-19 11:00:00 17.5 0 Calma 9 Noroeste 0 1020.4 -0.8 91
2018-06-19 10:00:00 16.9 5 Oeste 8 Oeste 0 1020.9 -0.3 94
2018-06-19 09:00:00 16.3 2 Oeste 11 Norte 0.1 1021.1 -0.1 95
2018-06-19 08:00:00 16.3 2 Este 9 Nordeste 0 1021.2 -0.2 93
2018-06-19 07:00:00 16 0 Calma 5 Oeste 0 1021.2 -0.3 94
2018-06-19 06:00:00 15.9 3 Oeste 8 Noroeste 0 1021.2 -0.5 94
2018-06-19 05:00:00 16 5 Oeste 8 Oeste 0 1021.4 -0.7 93
2018-06-19 04:00:00 16.1 0 Calma 17 Nordeste 0 1021.5 -0.8 94
2018-06-19 03:00:00 16.4 5 Nordeste 9 Nordeste 0 1021.7 -1.1 93
2018-06-19 02:00:00 16.6 4 Nordeste 13 Norte 0 1022.1 -0.6 93
2018-06-19 01:00:00 17.1 6 Sudeste 13 Nordeste 0 1022.3 -0.2 92
2018-06-19 00:00:00 17.1 0 Calma 11 Norte 0 1022.8 0.3 92
2018-06-18 23:00:00 17.6 6 Norte 11 Norte 0 1022.7 0.3 87
2018-06-18 22:00:00 17.9 6 Norte 11 Norte 0 1022.5 -0.2 85
2018-06-18 21:00:00 18.1 6 Oeste 17 Norte 0 1022.5 -0.1 84
2018-06-18 20:00:00 18.4 11 Noroeste 21 Noroeste 0 1022.4 -0.3 83
2018-06-18 19:00:00 18.6 12 Norte 24 Norte 0 1022.7 -0.1 83
2018-06-18 18:00:00 18.5 19 Norte 32 Norte 0 1022.6 0.1 89
2018-06-18 17:00:00 19.3 15 Noroeste 26 Noroeste 0 1022.7 -0.1 86
2018-06-18 16:00:00 20.3 18 Noroeste 28 Noroeste 0 1022.8 -0.3 78
2018-06-18 15:00:00 21 16 Norte 26 Norte 0 1022.5 -0.4 75
2018-06-18 14:00:00 20.3 12 Norte 21 Norte 0 1022.8 -0.1 79
2018-06-18 13:00:00 19.4 12 Norte 24 Noroeste 0 1023.1 -0.1 80
2018-06-18 12:00:00 20.3 15 Noroeste 24 Norte 0 1022.9 -0.2 71
2018-06-18 11:00:00 19.7 5 Oeste 13 Oeste 0 1022.9 0.3 74
2018-06-18 10:00:00 18.2 0 Calma 8 Sudeste 0 1023.2 0.8 78
2018-06-18 09:00:00 16.2 3 Sudeste 11 Este 0 1023.1 0.8 84
2018-06-18 08:00:00 15 7 Este 13 Este 0 1022.6 0.4 87
2018-06-18 07:00:00 14.5 6 Este 11 Este 0 1022.4 0.1 90
2018-06-18 06:00:00 14.2 7 Este 9 Este 0 1022.3 0 91
2018-06-18 05:00:00 13.7 6 Este 11 Este 0 1022.2 -0.2 92
2018-06-18 04:00:00 12.9 5 Este 13 Este 0 1022.3 -0.3 94
2018-06-18 03:00:00 13 7 Este 9 Sudeste 0 1022.3 -0.4 92
2018-06-18 02:00:00 13.5 7 Sudeste 9 Sudeste 0 1022.4 0 92
2018-06-18 01:00:00 14.3 6 Este 9 Sudeste 0 1022.6 0.4 89
2018-06-18 00:00:00 15.1 7 Este 9 Este 0 1022.7 0.9 86
2018-06-17 23:00:00 16.3 2 Este 11 Norte 0 1022.4 0.9 80
2018-06-17 22:00:00 17.6 7 Norte 15 Norte 0 1022.2 0.9 73
2018-06-17 21:00:00 19.4 10 Norte 18 Norte 0 1021.8 0.7 65
2018-06-17 20:00:00 20.4 10 Noroeste 24 Nordeste 0 1021.5 0.6 64
2018-06-17 19:00:00 20.6 13 Norte 28 Norte 0 1021.3 0.6 63
2018-06-17 18:00:00 21.3 14 Norte 26 Norte 0 1021.1 0.3 62
2018-06-17 17:00:00 21.7 13 Noroeste 26 Noroeste 0 1020.9 0.1 64
2018-06-17 16:00:00 21.9 15 Noroeste 28 Noroeste 0 1020.7 -0.3 65
2018-06-17 15:00:00 21.6 13 Noroeste 28 Oeste 0 1020.8 -0.2 64
2018-06-17 14:00:00 21.2 14 Norte 24 Noroeste 0 1020.8 -0.2 66
2018-06-17 13:00:00 20.3 12 Norte 24 Noroeste 0 1021 0 69
2018-06-17 12:00:00 20 8 Norte 21 Noroeste 0 1021 0.4 71
2018-06-17 11:00:00 19 8 Oeste 15 Noroeste 0 1021 0.9 73
2018-06-17 10:00:00 18 2 Noroeste 8 Norte 0 1021 1.5 80
2018-06-17 09:00:00 16 5 Sudeste 11 Este 0 1020.6 1.5 91
2018-06-17 08:00:00 15.3 8 Este 11 Este 0 1020.1 1.1 94
2018-06-17 07:00:00 15.1 5 Este 11 Este 0 1019.5 0.3 92
2018-06-17 06:00:00 14.9 6 Sudeste 9 Sudeste 0 1019.1 0.1 93
2018-06-17 05:00:00 15 7 Este 11 Este 0 1019 -0.2 92
2018-06-17 04:00:00 14.6 5 Este 9 Este 0 1019.2 0 92
2018-06-17 03:00:00 14.4 4 Este 9 Este 0 1019 -0.5 93
2018-06-17 02:00:00 14.3 8 Sudeste 9 Sudeste 0 1019.2 0 92
2018-06-17 01:00:00 15.2 0 Calma -- -- 0 1019.2 0.8 89
2018-06-17 00:00:00 15.9 0 Calma 8 Norte 0 1019.5 1.5 85
2018-06-16 23:00:00 17 6 Norte 13 Norte 0 1019.2 1.2 79
2018-06-16 22:00:00 17.4 7 Norte 15 Norte 0 1018.4 1.4 76
2018-06-16 21:00:00 18 9 Norte 21 Norte 0 1018 1.5 74
2018-06-16 20:00:00 18.7 15 Norte 26 Norte 0 1018 1.6 72
2018-06-16 19:00:00 19.5 17 Norte 22 Norte 0 1017 0.6 69
2018-06-16 18:00:00 20.3 14 Norte 24 Norte 0 1016.5 -0.1 67
2018-06-16 17:00:00 20.6 17 Norte 32 Nordeste 0 1016.4 -0.1 66
2018-06-16 16:00:00 19.8 14 Norte 24 Norte 0 1016.4 -0.2 67
2018-06-16 15:00:00 20.3 14 Norte 24 Norte 0 1016.6 0.1 68
2018-06-16 14:00:00 20.6 11 Norte 21 Norte 0 1016.5 0.1 66
2018-06-16 13:00:00 19.6 15 Noroeste 18 Noroeste 0 1016.6 0.3 75
2018-06-16 12:00:00 19.6 12 Noroeste 21 Oeste 0 1016.5 0.6 80
2018-06-16 11:00:00 17.5 5 Oeste 13 Oeste 0 1016.4 1.1 88
2018-06-16 10:00:00 17.2 0 Calma 9 Oeste 0 1016.3 1.2 90
2018-06-16 09:00:00 16.5 0 Calma 8 Norte 0 1015.9 0.7 94
2018-06-16 08:00:00 15.7 0 Calma 8 Este 0 1015.3 0.2 95
2018-06-16 07:00:00 15.5 4 Sur 8 Sur 0 1015.1 0 97
2018-06-16 06:00:00 15.6 0 Calma 5 Nordeste 0 1015.2 -0.4 96
2018-06-16 05:00:00 15.6 4 Este 5 Este 0 1015.1 -1 96
2018-06-16 04:00:00 15.5 0 Calma 5 Sur 0 1015.1 -1.3 96
2018-06-16 03:00:00 15.4 0 Calma 5 Sur 0 1015.6 -0.7 97
2018-06-16 02:00:00 15.4 3 Noroeste 8 Noroeste 0.1 1016.1 -0.5 97
2018-06-16 01:00:00 15.6 5 Oeste 9 Oeste 0.3 1016.4 0.3 97
2018-06-16 00:00:00 15.7 8 Oeste 13 Oeste 0.2 1016.3 0.4 96
2018-06-15 23:00:00 16 9 Noroeste 17 Oeste 1.2 1016.6 0.8 96
2018-06-15 22:00:00 16.8 8 Noroeste 15 Noroeste 0 1016.1 0.6 94
2018-06-15 21:00:00 17.4 4 Norte 21 Norte 0.1 1015.9 0.4 93
2018-06-15 20:00:00 17.6 13 Norte 22 Norte 0 1015.8 0.3 90
2018-06-15 19:00:00 18.9 16 Norte 24 Norte 0 1015.5 -0.1 83
2018-06-15 18:00:00 19 15 Noroeste 30 Noroeste 0 1015.5 -0.2 84
2018-06-15 17:00:00 20.5 17 Noroeste 28 Norte 0 1015.5 0 76
2018-06-15 16:00:00 21.1 16 Noroeste 30 Noroeste 0 1015.6 0 73
2018-06-15 15:00:00 20 14 Noroeste 22 Noroeste 0 1015.7 -0.2 77
2018-06-15 14:00:00 19.4 9 Noroeste 15 Noroeste 0 1015.5 -0.3 78
2018-06-15 13:00:00 18.5 6 Oeste 11 Oeste 0 1015.6 0.1 80
2018-06-15 12:00:00 17.2 5 Norte 17 Norte 0 1015.9 0.6 85
2018-06-15 11:00:00 16.9 0 Calma 8 Nordeste 0 1015.8 0.6 80
2018-06-15 10:00:00 16.3 5 Este 9 Sudeste 0 1015.5 0.6 83
2018-06-15 09:00:00 15.1 9 Este 13 Este 0 1015.3 0.4 87
2018-06-15 08:00:00 14 9 Sudeste 13 Sudeste 0 1015.2 0.2 90
2018-06-15 07:00:00 13.4 5 Sudeste 13 Sudeste 0 1014.9 -0.3 93
2018-06-15 06:00:00 13.2 8 Sudeste 11 Este 0 1014.9 -0.7 93
2018-06-15 05:00:00 12.8 8 Este 11 Este 0 1015 -0.8 94
2018-06-15 04:00:00 12.4 7 Este 11 Este 0 1015.2 -0.8 94
2018-06-15 03:00:00 12.6 8 Este 11 Este 0 1015.6 -0.6 94
2018-06-15 02:00:00 13.1 7 Este -- -- 0 1015.8 -0.6 92
2018-06-15 01:00:00 14 5 Este 9 Este 0 1016 0.1 91
2018-06-15 00:00:00 14.8 2 Este 5 Sudeste 0 1016.2 0.4 86
2018-06-14 23:00:00 15.8 4 Oeste 11 Noroeste 0 1016.4 0.9 84
2018-06-14 22:00:00 16.8 11 Norte 17 Norte 0 1015.9 0.5 78
2018-06-14 21:00:00 18.8 11 Noroeste 21 Norte 0 1015.8 0.2 70
2018-06-14 20:00:00 20.5 9 Noroeste 24 Norte 0 1015.5 -0.4 62
2018-06-14 19:00:00 21.2 15 Norte 24 Norte 0 1015.4 -0.7 60
2018-06-14 18:00:00 21.3 6 Sudoeste 24 Noroeste 0 1015.6 -0.8 60
2018-06-14 17:00:00 21.4 11 Noroeste 26 Norte 0 1015.9 -1 60
2018-06-14 16:00:00 21.1 10 Noroeste 26 Noroeste 0 1016.1 -1 63
2018-06-14 15:00:00 19.9 11 Norte 21 Noroeste 0.1 1016.4 -0.5 63
2018-06-14 14:00:00 19.7 12 Noroeste 22 Noroeste -- 1016.9 0.1 60
2018-06-14 13:00:00 18.9 9 Noroeste 21 Noroeste 0 1017.1 0.3 65
2018-06-14 12:00:00 18.5 9 Noroeste 18 Noroeste 0 1016.9 0.2 66
2018-06-14 11:00:00 17.2 8 Noroeste 11 Noroeste 0 1016.8 0.2 76
2018-06-14 10:00:00 16 0 Calma 5 Norte 0 1016.8 0.1 83
2018-06-14 09:00:00 15 4 Este 15 Este 0 1016.7 0.3 86
2018-06-14 08:00:00 13.1 8 Este 11 Este 0 1016.6 -0.1 93
2018-06-14 07:00:00 12.6 5 Este 9 Este 0 1016.7 -0.4 95
2018-06-14 06:00:00 12.5 7 Este 11 Este 0 1016.4 -0.9 94
2018-06-14 05:00:00 13.1 7 Este 9 Este 0 1016.7 -1.2 94
2018-06-14 04:00:00 13.5 7 Este 13 Este 0 1017.1 -1 94
2018-06-14 03:00:00 13.5 10 Sudeste 13 Este 0 1017.3 -1.1 94
2018-06-14 02:00:00 13.1 8 Este 11 Este 0 1017.9 -0.3 94
2018-06-14 01:00:00 12.9 7 Sudeste 9 Sudeste 0 1018.1 0.2 93
2018-06-14 00:00:00 14.3 3 Este 11 Norte 0 1018.4 0.6 88
2018-06-13 23:00:00 15.3 8 Norte 15 Nordeste 0 1018.2 0.5 85
2018-06-13 22:00:00 15.9 8 Norte 21 Norte 0 1017.9 0.2 82
2018-06-13 21:00:00 17.3 12 Noroeste 24 Norte 0 1017.8 -0.2 75
2018-06-13 20:00:00 18.6 16 Noroeste 28 Noroeste 0 1017.7 -0.5 70
2018-06-13 19:00:00 18.3 18 Noroeste 33 Norte 0 1017.7 -0.5 71
2018-06-13 18:00:00 18.8 23 Noroeste 35 Noroeste 0 1018 -0.2 69
2018-06-13 17:00:00 20.2 27 Norte 42 Norte 0 1018.2 -0.3 63
2018-06-13 16:00:00 20.1 22 Noroeste 39 Noroeste 0 1018.2 0 64
2018-06-13 15:00:00 18.2 28 Noroeste 42 Noroeste 0 1018.2 0.3 73
2018-06-13 14:00:00 19.3 28 Noroeste 45 Noroeste 0 1018.5 0.8 70
2018-06-13 13:00:00 19.2 27 Noroeste 42 Noroeste 0 1018.2 0.4 72
2018-06-13 12:00:00 18.8 29 Noroeste 42 Noroeste 0 1017.9 0.4 69
2018-06-13 11:00:00 17.2 25 Noroeste 42 Noroeste 0 1017.7 0.5 77
2018-06-13 10:00:00 16.7 22 Noroeste 35 Oeste 0 1017.8 0.9 78
2018-06-13 09:00:00 16.5 19 Noroeste 33 Noroeste 0 1017.5 0.8 78
2018-06-13 08:00:00 16 21 Noroeste 35 Noroeste 0 1017.2 0.4 79
2018-06-13 07:00:00 16.2 24 Noroeste 41 Noroeste 0 1016.9 0.1 78
2018-06-13 06:00:00 16.3 22 Noroeste 41 Oeste 0 1016.7 -0.2 80
2018-06-13 05:00:00 16.4 23 Noroeste 41 Noroeste 0 1016.8 0.1 81
2018-06-13 04:00:00 16.4 30 Noroeste 48 Noroeste 0 1016.8 0.2 83
2018-06-13 03:00:00 16.6 28 Noroeste 48 Noroeste 0 1016.9 0.5 82
2018-06-13 02:00:00 16.7 27 Noroeste 42 Noroeste 0 1016.7 0.7 83
2018-06-13 01:00:00 16.7 18 Noroeste 32 Oeste 0 1016.6 1.1 82
2018-06-13 00:00:00 16.7 18 Noroeste 30 Noroeste 0 1016.4 1.3 81
2018-06-12 23:00:00 16.8 17 Oeste 41 Noroeste 0 1016 1.2 81
2018-06-12 22:00:00 17.1 27 Noroeste 42 Noroeste 0 1015.5 1.3 81
2018-06-12 21:00:00 17.3 26 Noroeste 42 Noroeste 0 1015.1 1 80
2018-06-12 20:00:00 17.6 20 Noroeste 46 Noroeste 0 1014.8 1.2 78
2018-06-12 19:00:00 17.4 33 Noroeste 50 Noroeste 0 1014.2 0.9 80
2018-06-12 18:00:00 17.8 33 Noroeste 48 Noroeste 0 1014.1 1.4 75
2018-06-12 17:00:00 18.2 31 Noroeste 54 Oeste 0 1013.6 1.4 74
2018-06-12 16:00:00 18.3 32 Noroeste 55 Noroeste 0 1013.3 1.8 77
2018-06-12 15:00:00 18.3 37 Noroeste 58 Noroeste 0 1012.7 1.5 79
2018-06-12 14:00:00 19.1 37 Noroeste 55 Noroeste 0 1012.2 1.7 76
2018-06-12 13:00:00 20.1 28 Oeste 50 Oeste 0 1011.5 1.2 75
2018-06-12 12:00:00 18.3 32 Noroeste 61 Noroeste 0 1011.2 1.6 84
2018-06-12 11:00:00 17.7 27 Noroeste 52 Noroeste 0.2 1010.5 1.7 84
2018-06-12 10:00:00 16.7 23 Oeste 41 Noroeste 0.4 1010.3 2.2 90
2018-06-12 09:00:00 16.6 22 Oeste 41 Oeste 0.3 1009.6 1.9 86
2018-06-12 08:00:00 16.9 26 Oeste 45 Noroeste 0.1 1008.8 0.8 86
2018-06-12 07:00:00 17 21 Oeste 37 Oeste 0.4 1008.1 -0.4 86
2018-06-12 06:00:00 17 17 Oeste 30 Oeste 0.4 1007.7 -1 87
2018-06-12 05:00:00 16.9 14 Oeste 30 Noroeste 1 1008 -1.1 88
2018-06-12 04:00:00 16.7 11 Oeste 18 Oeste 0.3 1008.5 -1.1 90
2018-06-12 03:00:00 16.5 3 Sudeste 9 Este 0.1 1008.7 -1.6 89
2018-06-12 02:00:00 16.2 8 Sudeste 13 Sudeste 0 1009.1 -1.4 89
2018-06-12 01:00:00 16.6 6 Sudeste 9 Sudeste 0 1009.6 -0.5 86
2018-06-12 00:00:00 16.7 4 Este 11 Nordeste 0 1010.3 0.4 82
2018-06-11 23:00:00 17.1 7 Este 11 Este 0 1010.5 0.7 81
2018-06-11 22:00:00 17.4 3 Oeste 13 Norte 0 1010.1 0.8 75
2018-06-11 21:00:00 18 11 Noroeste 28 Noroeste 0 1009.9 0.6 72
2018-06-11 20:00:00 19.1 18 Norte 28 Norte 0 1009.8 0.2 66
2018-06-11 19:00:00 20.8 6 Oeste 18 Noroeste 0 1009.3 -0.4 66
2018-06-11 18:00:00 20.2 10 Noroeste 22 Noroeste 0 1009.3 -0.7 68
2018-06-11 17:00:00 19.4 14 Noroeste 22 Noroeste 0 1009.6 -0.7 71
2018-06-11 16:00:00 19.5 14 Noroeste 28 Norte 0 1009.7 -0.6 71
2018-06-11 15:00:00 19.2 18 Noroeste 28 Norte 0 1010 -0.1 72
2018-06-11 14:00:00 19 19 Noroeste 32 Noroeste 0 1010.3 0.6 75
2018-06-11 13:00:00 17.7 15 Noroeste 28 Norte 0 1010.3 1.3 85
2018-06-11 12:00:00 16.2 3 Noroeste 11 Noroeste 0.2 1010.1 1.6 94
2018-06-11 11:00:00 15.6 8 Oeste 37 Noroeste 0.2 1009.7 1.6 92
2018-06-11 10:00:00 16.5 8 Oeste 15 Noroeste 0 1009 1.2 90
2018-06-11 09:00:00 16 9 Oeste 17 Oeste 0 1008.5 0.9 94
2018-06-11 08:00:00 15.6 0 Calma 9 Norte 6.6 1008.1 0.7 97
2018-06-11 07:00:00 15.1 5 Este 9 Nordeste 0.8 1007.8 0.1 97
2018-06-11 06:00:00 15 0 Calma 8 Norte 0.7 1007.6 -0.2 97
2018-06-11 05:00:00 14.9 4 Este 9 Este 0 1007.4 -0.7 97
2018-06-11 04:00:00 15 2 Nordeste 13 Este 0 1007.7 -0.6 98
2018-06-11 03:00:00 14.8 6 Este 9 Sudeste 0 1007.8 -0.5 96
2018-06-11 02:00:00 15.7 7 Este 9 Este 0 1008.1 0.2 95
2018-06-11 01:00:00 16.3 0 Calma 5 Sudeste 0 1008.3 0.8 94
2018-06-11 00:00:00 16.5 4 Sudeste 11 Este 0 1008.3 1.3 94
2018-06-10 23:00:00 16.8 0 Calma 9 Este 0 1007.9 1.2 93
2018-06-10 22:00:00 17.2 6 Este 13 Nordeste 0 1007.5 0.4 92
2018-06-10 21:00:00 17.8 0 Calma 11 Este 0 1007 -0.1 87
2018-06-10 20:00:00 17.8 9 Este 11 Este 0.1 1006.7 -0.3 89
2018-06-10 19:00:00 18.4 8 Este 13 Este 0 1007.1 0 85
2018-06-10 18:00:00 19.1 2 Oeste 11 Oeste 0.1 1007.1 -0.1 80
2018-06-10 17:00:00 20.3 5 Oeste 11 Noroeste 0 1007 0.1 72
2018-06-10 16:00:00 20.4 6 Este 15 Este 0 1007.1 0.3 76
2018-06-10 15:00:00 20.7 12 Noroeste 24 Noroeste 0 1007.2 0.1 69
2018-06-10 14:00:00 22.5 5 Norte 13 Nordeste 0 1006.9 -0.3 57
2018-06-10 13:00:00 23.4 6 Norte 15 Nordeste 0 1006.8 -0.8 54
2018-06-10 12:00:00 22.3 4 Oeste 21 Noroeste 0 1007.1 -0.4 56
2018-06-10 11:00:00 21.8 3 Este 17 Nordeste 0 1007.2 -0.3 60
2018-06-10 10:00:00 19.9 9 Nordeste 15 Este 0 1007.6 0.2 64
2018-06-10 09:00:00 18 0 Calma 8 Nordeste 0 1007.5 0.3 69
2018-06-10 08:00:00 15.4 7 Norte 17 Nordeste 0 1007.5 0 81
2018-06-10 07:00:00 13.5 8 Sudeste 17 Sudeste 0 1007.4 0 87
2018-06-10 06:00:00 13.9 5 Este 11 Sur 0 1007.2 -0.5 87
2018-06-10 05:00:00 13.7 3 Norte 13 Norte 0 1007.5 -0.3 93
2018-06-10 04:00:00 14.6 4 Sur 13 Sudeste 0 1007.4 -0.7 90
2018-06-10 03:00:00 14.9 9 Sudeste 18 Este 0 1007.7 -0.9 93
2018-06-10 02:00:00 15.4 7 Sudeste 17 Sudeste 0 1007.8 -0.6 89
2018-06-10 01:00:00 16.1 8 Sur 13 Sur 0 1008.1 0.9 90
2018-06-10 00:00:00 17.5 4 Sudeste 18 Sur 1 1008.6 1.7 89
2018-06-09 23:00:00 18.2 7 Sudeste 21 Este 0.5 1008.4 1.9 90
2018-06-09 22:00:00 18.7 11 Este 18 Este 0 1007.2 0.7 84
2018-06-09 21:00:00 18.9 8 Este 22 Este 0 1006.9 0.2 82
2018-06-09 20:00:00 20.1 13 Sudeste 18 Sur 0 1006.5 -0.4 80
2018-06-09 19:00:00 20.4 13 Este 21 Sudeste 0 1006.5 -0.9 77
2018-06-09 18:00:00 20.9 13 Noroeste 21 Noroeste 0 1006.7 -0.8 74
2018-06-09 17:00:00 21.5 6 Nordeste 21 Nordeste 0 1006.9 -0.3 70
2018-06-09 16:00:00 21.6 11 Este 17 Este 0 1007.4 0.1 71
2018-06-09 15:00:00 19.6 11 Oeste 22 Oeste 0 1007.5 0.1 75
2018-06-09 14:00:00 22.5 13 Nordeste 22 Nordeste 0 1007.2 -0.4 64
2018-06-09 13:00:00 23.1 7 Nordeste 33 Nordeste 0 1007.3 -0.4 57
2018-06-09 12:00:00 23.1 3 Nordeste 13 Nordeste 0 1007.4 -0.2 55
2018-06-09 11:00:00 21.9 4 Nordeste 11 Este 0 1007.6 0 54
2018-06-09 10:00:00 20.4 0 Calma 8 Sudeste 0 1007.7 0.3 63
2018-06-09 09:00:00 18.4 0 Calma 9 Este 0 1007.6 0.8 77
2018-06-09 08:00:00 15.9 4 Este 13 Este 0 1007.6 1 90
2018-06-09 07:00:00 14.3 6 Este 11 Este 0 1007.4 0.8 94
2018-06-09 06:00:00 15.6 5 Sudeste 8 Sudeste 0 1006.8 0.3 93
2018-06-09 05:00:00 16.7 3 Este 11 Sudeste 0 1006.6 0 93
2018-06-09 04:00:00 17.6 9 Sudeste 15 Este 0 1006.6 0.4 91
2018-06-09 03:00:00 17.6 7 Sudeste 15 Nordeste 0.1 1006.5 0.3 96
2018-06-09 02:00:00 17.5 7 Nordeste 11 Este 0.6 1006.6 0.7 97
2018-06-09 01:00:00 17.2 7 Sudeste 11 Este 0 1006.2 0.8 96
2018-06-09 00:00:00 17.5 4 Sudeste 11 Este 0 1006.2 0.2 96
2018-06-08 23:00:00 17.5 7 Este 13 Este 0 1005.9 0.9 95
2018-06-08 22:00:00 18 6 Sur 24 Noroeste 0.3 1005.4 1 95
2018-06-08 21:00:00 18.4 14 Noroeste 24 Noroeste 0 1006 1.9 93
2018-06-08 20:00:00 19.4 17 Noroeste 30 Noroeste 0.3 1005 1.4 92
2018-06-08 19:00:00 20.1 13 Noroeste 24 Oeste 2 1004.4 0.2 91
2018-06-08 18:00:00 21.5 15 Noroeste 30 Noroeste 0.1 1004.1 -0.9 81
2018-06-08 17:00:00 25.8 14 Este 30 Este 0 1003.6 -2.1 57
2018-06-08 16:00:00 27.5 15 Este 26 Este 0 1004.2 -2.1 49
2018-06-08 15:00:00 27.2 6 Sudeste 22 Este 0 1005 -1.8 53
2018-06-08 14:00:00 25.9 6 Sudoeste 17 Sudoeste 0 1005.7 -1.3 50
2018-06-08 13:00:00 24.9 6 Nordeste 17 Sudoeste 0 1006.3 -1.1 56
2018-06-08 12:00:00 23.6 10 Sur 22 Sur 0 1006.8 -0.5 58
2018-06-08 11:00:00 22 8 Este 15 Sudeste 0 1007 -0.4 66
2018-06-08 10:00:00 19.4 3 Este 13 Nordeste 0 1007.4 0 76
2018-06-08 09:00:00 18 6 Este 13 Nordeste 0 1007.3 -0.2 80
2018-06-08 08:00:00 16.9 3 Sudeste 11 Sudeste 0 1007.4 -0.4 84
2018-06-08 07:00:00 16.6 0 Calma 13 Este 0 1007.4 -0.8 85
2018-06-08 06:00:00 16.3 5 Este 9 Este 0 1007.5 -1.2 88
2018-06-08 05:00:00 16.3 3 Sudeste 15 Sudeste 0 1007.8 -1.2 88
2018-06-08 04:00:00 16.5 6 Este 15 Este 0 1008.2 -1.5 91
2018-06-08 03:00:00 16.7 13 Sudeste 17 Sudeste 0 1008.7 -1.2 92
2018-06-08 02:00:00 16.9 9 Este 17 Este 0 1009 -1.1 92
2018-06-08 01:00:00 16.8 10 Este 13 Este 0 1009.7 0.1 93
2018-06-08 00:00:00 17.2 8 Este 9 Este 0 1009.9 0.6 92
2018-06-07 23:00:00 17.9 0 Calma 5 Oeste 0 1010.1 0.9 88
2018-06-07 22:00:00 18.4 5 Noroeste 9 Oeste 0 1009.6 0.2 86
2018-06-07 21:00:00 19.1 9 Noroeste 13 Noroeste 0 1009.3 -0.2 84
2018-06-07 20:00:00 20.2 9 Oeste 21 Noroeste 0 1009.2 -0.8 79
2018-06-07 19:00:00 20.6 14 Noroeste 21 Oeste 0 1009.4 -0.5 77
2018-06-07 18:00:00 22.1 9 Oeste 24 Noroeste 0 1009.5 -0.4 70
2018-06-07 17:00:00 20.5 17 Oeste 26 Noroeste 0 1010 -0.1 74
2018-06-07 16:00:00 22.6 15 Oeste 28 Noroeste 0 1009.9 -0.8 68
2018-06-07 15:00:00 21 19 Oeste 32 Oeste 0 1009.9 -1.4 71
2018-06-07 14:00:00 24.2 10 Este 33 Nordeste 0 1010.1 -1.7 59
2018-06-07 13:00:00 23 10 Este 26 Este 0 1010.7 -1.5 63
2018-06-07 12:00:00 21.5 12 Este 21 Este 0 1011.3 -0.9 68
2018-06-07 11:00:00 19.5 6 Sudeste 13 Sudeste 0 1011.8 -0.3 74
2018-06-07 10:00:00 18.3 5 Este 9 Este 0 1012.2 0.3 80
2018-06-07 09:00:00 16.8 4 Este 11 Este 0 1012.2 0.6 88
2018-06-07 08:00:00 16 6 Sudeste 9 Sudeste 0.1 1012.1 0.4 94
2018-06-07 07:00:00 15.7 5 Sudeste 9 Este 0 1011.9 0 94
2018-06-07 06:00:00 15.9 7 Este 9 Este 0 1011.6 -0.7 94
2018-06-07 05:00:00 16.1 4 Este 9 Este 0 1011.7 -0.7 93
2018-06-07 04:00:00 16.3 5 Este 8 Este 0 1011.9 -0.9 93
2018-06-07 03:00:00 16.2 4 Sudeste 9 Sudeste 0 1012.3 -0.6 93
2018-06-07 02:00:00 16.5 6 Sudeste 9 Sudeste 0 1012.4 -0.4 91
2018-06-07 01:00:00 17 3 Este 5 Este 0 1012.8 0.5 86
2018-06-07 00:00:00 17.2 0 Calma 9 Norte 0 1012.9 0.8 83
2018-06-06 23:00:00 17.2 5 Noroeste 11 Noroeste 0 1012.8 1.1 85
2018-06-06 22:00:00 17.1 6 Noroeste 18 Noroeste 0 1012.3 1.2 85
2018-06-06 21:00:00 17.6 12 Norte 21 Norte 0 1012.1 1.4 81
2018-06-06 20:00:00 17.7 14 Noroeste 30 Noroeste 0 1011.7 1.1 81
2018-06-06 19:00:00 19.1 19 Norte 33 Noroeste 0 1011.1 0.7 75
2018-06-06 18:00:00 20.1 23 Noroeste 37 Noroeste 0 1010.7 0.4 70
2018-06-06 17:00:00 20.7 20 Noroeste 35 Noroeste 0 1010.6 0 67
2018-06-06 16:00:00 20.1 15 Noroeste 30 Noroeste 0 1010.4 -0.4 67
2018-06-06 15:00:00 20.8 15 Noroeste 30 Noroeste 0 1010.3 -0.6 66
2018-06-06 14:00:00 19.8 15 Noroeste 24 Noroeste 0 1010.6 -0.2 67
2018-06-06 13:00:00 19.8 9 Noroeste 30 Noroeste 0 1010.8 0.1 67
2018-06-06 12:00:00 19.1 11 Noroeste 28 Noroeste 0 1010.9 0.4 67
2018-06-06 11:00:00 17.6 5 Noroeste 13 Noroeste 0 1010.8 0.6 73
2018-06-06 10:00:00 15.6 3 Este 11 Sudeste 0 1010.7 0.8 83
2018-06-06 09:00:00 13.3 6 Este 15 Sudeste 0 1010.5 0.9 93
2018-06-06 08:00:00 11.7 9 Este 13 Este 0 1010.2 0.7 98
2018-06-06 07:00:00 11.2 7 Este 13 Este 0 1009.9 0.5 98
2018-06-06 06:00:00 10.8 9 Este 13 Este 0 1009.6 -0.2 97
2018-06-06 05:00:00 10.8 7 Sudeste 11 Este 0 1009.5 -0.3 96
2018-06-06 04:00:00 11.1 8 Este 11 Este 0 1009.4 -0.6 96
2018-06-06 03:00:00 11.3 8 Este 9 Este 0 1009.8 -0.3 95
2018-06-06 02:00:00 11.6 6 Este 9 Este 0 1009.8 -0.3 94
2018-06-06 01:00:00 12.3 0 Calma 9 Este 0 1010 0.6 93
2018-06-06 00:00:00 13.2 0 Calma 2 Sudeste 0 1010.1 1 89
2018-06-05 23:00:00 14.1 3 Sudeste 9 Norte 0 1010.1 1.2 86
2018-06-05 22:00:00 15.4 9 Norte 17 Norte 0 1009.4 0.8 79
2018-06-05 21:00:00 16.7 7 Oeste 15 Noroeste 0 1009.1 0.6 73
2018-06-05 20:00:00 17.3 10 Norte 21 Norte 0 1008.9 0.5 71
2018-06-05 19:00:00 18.7 9 Noroeste 18 Norte 0 1008.6 0.2 68
2018-06-05 18:00:00 17.5 13 Noroeste 24 Norte 0 1008.5 -0.2 72
2018-06-05 17:00:00 18.6 16 Noroeste 26 Norte 0 1008.4 -0.7 65
2018-06-05 16:00:00 19.3 12 Norte 22 Norte 0 1008.4 -1.3 63
2018-06-05 15:00:00 19.4 12 Norte 24 Norte 0 1008.7 -1.5 67
2018-06-05 14:00:00 18.3 7 Norte 17 Norte 0 1009.1 -0.8 71
2018-06-05 13:00:00 17.1 5 Noroeste 13 Noroeste 0 1009.7 -0.1 74
2018-06-05 12:00:00 15.1 3 Nordeste 13 Nordeste 0 1010.2 0.4 82
2018-06-05 11:00:00 14.1 4 Noroeste 13 Oeste 0 1009.9 0.2 88
2018-06-05 10:00:00 12.9 8 Oeste 13 Oeste 0.3 1009.8 0.6 93
2018-06-05 09:00:00 12.6 6 Oeste 15 Oeste 1.9 1009.8 1 93
2018-06-05 08:00:00 12.9 7 Noroeste 18 Norte 0.2 1009.7 0.9 92
2018-06-05 07:00:00 13.3 10 Noroeste 22 Norte 0.1 1009.2 0.2 90
2018-06-05 06:00:00 14.1 12 Norte 17 Norte 0 1008.8 -0.4 89
2018-06-05 05:00:00 14.5 0 Calma 5 Norte 0 1008.8 -0.7 96
2018-06-05 04:00:00 14.5 0 Calma 8 Este 0 1009 -0.7 96
2018-06-05 03:00:00 14.6 0 Calma -- -- 0 1009.2 -0.5 96
2018-06-05 02:00:00 14.4 0 Calma 8 Sudeste 0 1009.5 -0.4 96
2018-06-05 01:00:00 14.5 0 Calma 5 Este 0 1009.7 0.6 95
2018-06-05 00:00:00 14.6 0 Calma 8 Norte 0 1009.7 0.6 95
2018-06-04 23:00:00 14.4 3 Oeste 11 Oeste 0.8 1009.9 1.3 95
2018-06-04 22:00:00 14.3 8 Noroeste 24 Noroeste 3.2 1009.1 0.7 95
2018-06-04 21:00:00 15.4 14 Noroeste 18 Oeste 0 1009.1 0.7 94
2018-06-04 20:00:00 16.2 10 Noroeste 15 Noroeste 0 1008.6 0.1 87
2018-06-04 19:00:00 16.5 10 Noroeste 18 Noroeste 0 1008.4 -- 85
2018-06-04 18:00:00 16.3 10 Noroeste 24 Noroeste 0 1008.4 -- 86
2018-06-04 17:00:00 16.9 13 Noroeste 21 Norte 0 1008.5 -- 80
2018-06-04 16:00:00 -- 15 Norte 22 Noroeste 0 -- -- --
2018-06-04 15:00:00 18.5 11 Noroeste 21 Noroeste 0 -- -- --
2018-06-04 14:00:00 17.7 13 Noroeste 21 Norte 0 -- -- --
2018-06-04 13:00:00 18.4 12 Noroeste 21 Oeste 0 -- -- --
2018-06-04 12:00:00 17.3 9 Noroeste 18 Noroeste 0 -- -- --
2018-06-04 11:00:00 16.1 13 Noroeste 18 Noroeste 0 -- -- --
2018-06-04 10:00:00 16.1 2 Norte 9 Norte 0 -- -- --
2018-06-04 09:00:00 15.7 0 Calma 5 Este 0 -- -- --
2018-06-04 08:00:00 15.2 4 Este 11 Sudeste 0 -- -- --
2018-06-04 07:00:00 15.1 0 Calma -- -- 0 -- -- --
2018-06-04 06:00:00 15.2 0 Calma 8 Norte 0 -- -- --
2018-06-04 05:00:00 15.3 0 Calma 8 Norte 0 -- -- --
2018-06-04 04:00:00 15.2 5 Oeste 21 Oeste 0 -- -- --
2018-06-04 03:00:00 15.4 15 Noroeste 33 Oeste 1.2 -- -- --
2018-06-04 02:00:00 16.6 7 Oeste 13 Noroeste 0 -- -- --
2018-06-04 01:00:00 16.9 6 Noroeste 11 Oeste 0 -- -- --
2018-06-04 00:00:00 17 6 Noroeste 11 Norte 0 -- -- --
2018-06-03 23:00:00 17.2 9 Norte 17 Noroeste 0 -- -- --
2018-06-03 22:00:00 17.2 8 Oeste 18 Noroeste 0 -- -- --
2018-06-03 21:00:00 17.9 9 Oeste 13 Noroeste 0 -- -- --
2018-06-03 20:00:00 18 8 Nordeste 15 Noroeste 0.1 -- -- --
2018-06-03 19:00:00 17.8 9 Oeste 13 Oeste 0.7 -- -- --
2018-06-03 18:00:00 17.3 -- -- 15 Norte 5.3 -- -- --
2018-06-03 17:00:00 17.9 -- -- -- -- -- -- -- --
2018-06-03 16:00:00 19.2 14 Noroeste 28 Norte 0 -- -- --
2018-06-03 15:00:00 20.5 18 Norte 26 Norte 0 -- -- --
2018-06-03 14:00:00 21 19 Noroeste 30 Noroeste 0 -- -- --
2018-06-03 13:00:00 21.6 15 Noroeste 26 Noroeste 0 -- -- --
2018-06-03 12:00:00 21 14 Noroeste 28 Oeste 0 -- -- --
2018-06-03 11:00:00 21.5 18 Noroeste 26 Oeste 0 -- -- --
2018-06-03 10:00:00 21.4 4 Nordeste 11 Este 0 -- -- --
2018-06-03 09:00:00 19.3 3 Este 8 Este 0 -- -- --
2018-06-03 08:00:00 17 3 Sur 9 Sudeste 0 -- -- --
2018-06-03 07:00:00 16.4 6 Este 11 Este 0 -- -- --
2018-06-03 06:00:00 17.2 8 Este -- -- -- -- -- --
2018-06-03 05:00:00 17.6 0 Calma -- -- 0 -- -- --
2018-06-03 04:00:00 17.6 3 Norte 8 Norte 0 -- -- --
2018-06-03 03:00:00 17.7 4 Noroeste 13 Noroeste 0 -- -- --
2018-06-03 02:00:00 18 11 Noroeste 17 Noroeste 0 -- -- --
2018-06-03 01:00:00 18.3 11 Noroeste 17 Noroeste 0 -- -- --
2018-06-03 00:00:00 18.4 10 Noroeste 17 Noroeste 0 1011.6 0.8 89
2018-06-02 23:00:00 18.4 10 Noroeste 24 Noroeste 0 1011.9 1.8 91
2018-06-02 22:00:00 18.4 16 Oeste 24 Noroeste 0 1011.2 1 91
2018-06-02 21:00:00 18.7 14 Oeste 26 Noroeste 0 1010.8 0.7 88
2018-06-02 20:00:00 19.8 10 Oeste 24 Oeste 0 1010.1 -0.2 83
2018-06-02 19:00:00 21.6 11 Oeste 22 Este 0 1010.2 -0.9 76
2018-06-02 18:00:00 24.9 15 Nordeste 30 Nordeste 0 1010.1 -1.9 63
2018-06-02 17:00:00 25.7 15 Nordeste 30 Nordeste 0 1010.3 -2.6 63
2018-06-02 16:00:00 25.3 6 Este 18 Sudeste 0 1011.1 -2.6 62
2018-06-02 15:00:00 24.7 4 Norte 17 Este 0 1012 -2.3 63
2018-06-02 14:00:00 23.1 6 Este 15 Este 0 1012.9 -1.6 65
2018-06-02 13:00:00 22.5 4 Este 17 Este 0 1013.7 -1.3 74
2018-06-02 12:00:00 21.1 6 Este 15 Este 0 1014.3 -0.9 77
2018-06-02 11:00:00 19.6 0 Calma 9 Este 0 1014.5 -0.4 82
2018-06-02 10:00:00 17.2 0 Calma 5 Norte 0.2 1015 0 93
2018-06-02 09:00:00 16.5 0 Calma 13 Noroeste 0 1015.2 0.2 96
2018-06-02 08:00:00 16.1 7 Noroeste 15 Noroeste 0 1014.9 0 98
2018-06-02 07:00:00 16 9 Noroeste 17 Noroeste 0.1 1015 -0.3 98
2018-06-02 06:00:00 16.1 6 Oeste 13 Oeste 0 1015 -0.5 98
2018-06-02 05:00:00 16.1 6 Oeste 13 Noroeste 0 1014.9 -0.8 97
2018-06-02 04:00:00 16.4 0 Calma 11 Noroeste 0.2 1015.3 -0.9 97
2018-06-02 03:00:00 16.4 8 Noroeste 18 Oeste 0 1015.5 -0.6 97
2018-06-02 02:00:00 16.8 8 Noroeste 11 Noroeste 0 1015.7 0 97
2018-06-02 01:00:00 16.8 5 Noroeste 13 Noroeste 0 1016.2 0.5 96
2018-06-02 00:00:00 16.9 9 Oeste 15 Oeste 0 1016.1 0.4 96
2018-06-01 23:00:00 17.1 6 Oeste 18 Norte 1.1 1015.7 0.4 95
2018-06-01 22:00:00 17.5 4 Noroeste 9 Norte 0 1015.7 1.3 95
2018-06-01 21:00:00 18 4 Norte 15 Oeste 0 1015.7 1.1 89
2018-06-01 20:00:00 18.2 11 Oeste 21 Oeste 0 1015.3 -0.1 89
2018-06-01 19:00:00 18.7 10 Oeste 18 Oeste 0 1014.4 -0.5 87
2018-06-01 18:00:00 18.9 4 Norte 15 Noroeste 0 1014.6 -0.8 89
2018-06-01 17:00:00 17.9 9 Noroeste 15 Oeste 0 1015.4 -0.3 90
2018-06-01 16:00:00 18.5 8 Oeste 17 Noroeste 0 1014.9 -1.2 88
2018-06-01 15:00:00 17.6 10 Noroeste 17 Noroeste 0 1015.4 -0.5 90
2018-06-01 14:00:00 17.3 9 Oeste 17 Noroeste 0 1015.7 -0.3 92
2018-06-01 13:00:00 17.2 12 Noroeste 17 Noroeste 0 1016.1 0.2 91
2018-06-01 12:00:00 17.2 4 Oeste 9 Oeste 0 1015.9 0 89
2018-06-01 11:00:00 16.4 4 Noroeste 9 Noroeste 0 1016 0.4 93
2018-06-01 10:00:00 15.6 3 Oeste 11 Norte 0 1015.9 0.4 95
2018-06-01 09:00:00 15.1 7 Noroeste 11 Oeste 0 1015.9 0.5 96
2018-06-01 08:00:00 15.2 0 Calma 8 Este 0.4 1015.6 0.4 94
2018-06-01 07:00:00 15 0 Calma 8 Este 0 1015.5 0.1 94
2018-06-01 06:00:00 14.8 4 Sudeste 8 Este 0 1015.4 0 94
2018-06-01 05:00:00 14.8 0 Calma 5 Oeste 0 1015.2 -0.2 93
2018-06-01 04:00:00 14.7 0 Calma 8 Oeste 0 1015.4 -0.4 92
2018-06-01 03:00:00 14.5 3 Nordeste 8 Nordeste 0 1015.4 -0.3 92
2018-06-01 02:00:00 14.3 5 Nordeste 8 Este 0 1015.4 -0.3 92
2018-06-01 01:00:00 14.1 2 Este 8 Sur 0 1015.8 0.6 91
2018-06-01 00:00:00 14.6 2 Este 8 Este 0 1015.7 1.2 91
2018-05-31 23:00:00 15.5 0 Calma 8 Oeste 0 1015.7 1.7 86
2018-05-31 22:00:00 16.6 5 Noroeste 13 Noroeste 0 1015.2 1.7 82
2018-05-31 21:00:00 17.3 6 Norte 15 Noroeste 0 1014.5 0.8 77
2018-05-31 20:00:00 17.9 12 Noroeste 18 Norte 0 1014 0.4 75
2018-05-31 19:00:00 19.6 13 Nordeste 22 Norte 0 1013.5 -0.3 68
2018-05-31 18:00:00 19.4 4 Norte 15 Nordeste 0 1013.7 -0.3 67
2018-05-31 17:00:00 19.7 11 Nordeste 24 Nordeste 0 1013.6 -0.6 66
2018-05-31 16:00:00 19.3 13 Nordeste 22 Nordeste 0 1013.8 -0.7 70
2018-05-31 15:00:00 19.1 8 Nordeste 15 Norte 0 1014 -0.7 73
2018-05-31 14:00:00 19.1 6 Sudeste 13 Este 0 1014.2 -0.3 74
2018-05-31 13:00:00 17 6 Oeste 11 Oeste 0 1014.5 0.4 82
2018-05-31 12:00:00 15.8 4 Este 9 Este 0 1014.7 1 89
2018-05-31 11:00:00 14.9 4 Sur 15 Noroeste 0.4 1014.5 1.3 95
2018-05-31 10:00:00 15.1 8 Noroeste 17 Noroeste 0.2 1014.1 1.3 96
2018-05-31 09:00:00 15.4 0 Calma 11 Este 0 1013.7 1.4 93
2018-05-31 08:00:00 15.1 4 Este 8 Este 0 1013.2 1 94
2018-05-31 07:00:00 15.1 3 Este 5 Nordeste 0 1012.8 0.8 94
2018-05-31 06:00:00 15.2 0 Calma 8 Sudeste 0 1012.3 0.2 93
2018-05-31 05:00:00 15.3 0 Calma 5 Este 0 1012.2 0 93
2018-05-31 04:00:00 15.3 0 Calma 5 Este 0 1012 -0.3 94
2018-05-31 03:00:00 15.2 4 Este 8 Este 0 1012.1 -0.2 94
2018-05-31 02:00:00 15.2 6 Sudeste 11 Este 0 1012.2 0.1 94
2018-05-31 01:00:00 15.5 8 Este 11 Este 0 1012.3 0.9 91
2018-05-31 00:00:00 15.8 7 Este 9 Este 0 1012.3 1.1 88
2018-05-30 23:00:00 16 0 Calma 5 Sudeste 0 1012.1 1.3 85
2018-05-30 22:00:00 16.2 0 Calma 9 Norte 0 1011.4 1.1 82
2018-05-30 21:00:00 16.4 7 Norte 21 Norte 0 1011.2 1.2 80
2018-05-30 20:00:00 16.9 9 Noroeste 13 Noroeste 0 1010.8 0.9 80
2018-05-30 19:00:00 17 9 Noroeste 18 Norte 0 1010.3 0.7 79
2018-05-30 18:00:00 17.5 13 Norte 18 Norte 0 1010 0.6 78
2018-05-30 17:00:00 17.4 6 Noroeste 21 Noroeste 0 1009.9 0 77
2018-05-30 16:00:00 18 15 Noroeste 22 Noroeste 0 1009.6 -0.1 80
2018-05-30 15:00:00 18.4 3 Nordeste 13 Nordeste 0 1009.4 -0.5 81
2018-05-30 14:00:00 17.1 8 Noroeste 17 Noroeste 0 1009.9 0 85
2018-05-30 13:00:00 18.2 5 Norte 13 Norte 0 1009.7 -0.2 79
2018-05-30 12:00:00 17.3 3 Nordeste 9 Nordeste 0 1009.9 0.1 80
2018-05-30 11:00:00 16.7 2 Nordeste 8 Nordeste 0 1009.9 0.5 82
2018-05-30 10:00:00 16 5 Este 8 Este 0 1009.9 0.9 88
2018-05-30 09:00:00 15.5 0 Calma 11 Nordeste 0 1009.8 0.9 90
2018-05-30 08:00:00 15.1 0 Calma 13 Este 0 1009.4 0.5 92
2018-05-30 07:00:00 14.9 6 Este 11 Este 0 1009 -0.1 92
2018-05-30 06:00:00 14.8 4 Sudeste 11 Sudeste 0 1008.9 -0.4 93
2018-05-30 05:00:00 14.9 6 Sudeste 9 Sudeste 0 1008.9 -0.9 93
2018-05-30 04:00:00 15 0 Calma 9 Sudeste 0 1009.1 -1.2 93
2018-05-30 03:00:00 15.1 4 Sudeste 15 Este 0 1009.3 -1.1 92
2018-05-30 02:00:00 15.2 9 Sudeste 15 Sudeste 0 1009.8 -0.5 93
2018-05-30 01:00:00 15.5 5 Este 8 Este 0 1010.3 0.3 92
2018-05-30 00:00:00 15.5 5 Este 9 Sudeste 0 1010.4 0.7 92
2018-05-29 23:00:00 15.7 4 Sudeste 9 Este 0 1010.3 0.4 91
2018-05-29 22:00:00 15.8 0 Calma 8 Norte 0 1010 0.6 88
2018-05-29 21:00:00 16.4 5 Noroeste 11 Noroeste 0 1009.7 0 82
2018-05-29 20:00:00 16.6 9 Noroeste 17 Noroeste 0 1009.9 0.3 82
2018-05-29 19:00:00 17.4 10 Norte 17 Noroeste 0 1009.4 0.1 74
2018-05-29 18:00:00 17.5 10 Noroeste 24 Noroeste 0 1009.7 0.2 79
2018-05-29 17:00:00 18.2 18 Noroeste 24 Noroeste 0 1009.6 -0.3 75
2018-05-29 16:00:00 18.6 15 Noroeste 24 Noroeste 0 1009.3 -0.8 76
2018-05-29 15:00:00 18.9 17 Noroeste 28 Oeste 0 1009.5 -0.6 76
2018-05-29 14:00:00 19.9 12 Noroeste 21 Noroeste 0 1009.9 -0.2 72
2018-05-29 13:00:00 18.2 13 Noroeste 17 Noroeste 0 1010.1 -0.4 76
2018-05-29 12:00:00 19.1 5 Norte 13 Norte 0 1010.1 -0.4 68
2018-05-29 11:00:00 18.1 3 Norte 11 Este 0 1010.1 -0.6 73
2018-05-29 10:00:00 16.7 4 Sudeste 8 Sudeste 0 1010.5 -0.2 86
2018-05-29 09:00:00 15.2 2 Sudeste 11 Nordeste 0 1010.5 -0.2 93
2018-05-29 08:00:00 14.3 0 Calma 9 Este 0 1010.7 -0.1 97
2018-05-29 07:00:00 13.7 3 Nordeste 5 Nordeste 0 1010.7 -0.3 97
2018-05-29 06:00:00 14.1 3 Nordeste 5 Nordeste 0 1010.7 -0.5 97
2018-05-29 05:00:00 14.2 0 Calma 5 Este 0 1010.8 -1.1 97
2018-05-29 04:00:00 14.9 5 Este 8 Este 0 1011 -1.6 96
2018-05-29 03:00:00 15.2 0 Calma 4 Noroeste 0 1011.2 -1.3 95
2018-05-29 02:00:00 15.2 0 Calma 5 Este 0 1011.9 -0.6 95
2018-05-29 01:00:00 15.5 0 Calma 8 Este 0 1012.6 0.5 94
2018-05-29 00:00:00 15.5 0 Calma 9 Oeste 0 1012.5 0.7 92
2018-05-28 23:00:00 15.8 0 Calma 5 Oeste 0 1012.5 1 90
2018-05-28 22:00:00 15.9 0 Calma 13 Noroeste 0 1012.1 1 88
2018-05-28 21:00:00 16.3 8 Noroeste 15 Noroeste 0 1011.8 0.5 88
2018-05-28 20:00:00 16.3 9 Noroeste 15 Noroeste 0 1011.5 0.2 89
2018-05-28 19:00:00 16.4 9 Noroeste 17 Noroeste 0 1011.1 -0.5 89
2018-05-28 18:00:00 16.4 11 Noroeste 24 Noroeste 0 1011.3 -0.7 88
2018-05-28 17:00:00 16.5 15 Noroeste 26 Noroeste 0 1011.3 -0.7 89
2018-05-28 16:00:00 16.2 17 Noroeste 28 Noroeste 0 1011.6 -0.6 90
2018-05-28 15:00:00 16 14 Noroeste 22 Noroeste 0 1012 -0.3 92
2018-05-28 14:00:00 15.8 11 Noroeste 18 Noroeste 0.1 1012 -0.5 94
2018-05-28 13:00:00 15.7 6 Norte 15 Norte 0 1012.2 -0.6 94
2018-05-28 12:00:00 15.1 5 Oeste 11 Oeste 0.4 1012.3 -0.2 96
2018-05-28 11:00:00 14.9 7 Oeste 11 Oeste 0.2 1012.5 0.1 96
2018-05-28 10:00:00 14.7 0 Calma 8 Norte 0.8 1012.8 0.7 96
2018-05-28 09:00:00 14.8 3 Norte 13 Nordeste 1.3 1012.5 0.5 96
2018-05-28 08:00:00 14.6 4 Noroeste 15 Oeste 1.7 1012.4 0.5 97
2018-05-28 07:00:00 14.8 8 Oeste 21 Noroeste 0.2 1012.1 -0.1 96
2018-05-28 06:00:00 14.9 3 Noroeste 13 Noroeste 0.1 1012 0 95
2018-05-28 05:00:00 14.9 9 Oeste 17 Noroeste 0.2 1011.9 -0.5 96
2018-05-28 04:00:00 15.1 6 Noroeste 17 Noroeste 0.6 1012.2 -0.5 93
2018-05-28 03:00:00 15.2 11 Noroeste 17 Noroeste 0 1012 -1 93
2018-05-28 02:00:00 15.3 2 Oeste 9 Noroeste 0 1012.4 -0.6 94
2018-05-28 01:00:00 15.7 3 Oeste 9 Norte 0 1012.7 0.5 92
2018-05-28 00:00:00 15.7 2 Noroeste 13 Noroeste 0 1013 0.8 91
2018-05-27 23:00:00 15.7 10 Noroeste 15 Noroeste 0 1013 0.8 91
2018-05-27 22:00:00 16 5 Noroeste 11 Noroeste 0 1012.2 0.2 92
2018-05-27 21:00:00 16.1 3 Oeste 13 Norte 0 1012.2 0.6 91
2018-05-27 20:00:00 16 5 Noroeste 11 Noroeste 0 1012.2 0.8 95
2018-05-27 19:00:00 16.5 3 Norte 21 Nordeste 0 1012 0.5 90
2018-05-27 18:00:00 17.1 5 Norte 26 Norte 0 1011.6 -0.1 85
2018-05-27 17:00:00 17.6 9 Norte 22 Nordeste 0 1011.4 -0.2 81
2018-05-27 16:00:00 17.6 9 Nordeste 21 Nordeste 0 1011.5 0 83
2018-05-27 15:00:00 18.2 14 Norte 22 Norte 0 1011.7 0.1 80
2018-05-27 14:00:00 18.3 15 Nordeste 26 Norte 0 1011.6 0.1 80
2018-05-27 13:00:00 18.8 3 Norte 22 Nordeste 0 1011.5 0.2 76
2018-05-27 12:00:00 18.8 7 Sudeste 15 Este 0 1011.6 0.6 76
2018-05-27 11:00:00 18 9 Sudeste 17 Sudeste 0 1011.5 0.7 77
2018-05-27 10:00:00 18 9 Sudeste 15 Sudeste 0 1011.3 0.9 76
2018-05-27 09:00:00 16 6 Sudeste 9 Sudeste 0 1011 0.7 87
2018-05-27 08:00:00 15 8 Este 15 Sudeste 0 1010.8 0.2 91
2018-05-27 07:00:00 14.7 10 Sudeste 15 Sudeste 0 1010.4 -0.2 92
2018-05-27 06:00:00 14.6 4 Sudeste 9 Sudeste 0 1010.3 -0.3 93
2018-05-27 05:00:00 14.5 8 Sudeste 11 Sudeste 0 1010.6 -0.2 93
2018-05-27 04:00:00 14.3 8 Este 11 Este 0 1010.6 -0.2 93
2018-05-27 03:00:00 14.4 5 Sudeste 8 Este 0 1010.6 0.2 95
2018-05-27 02:00:00 14.1 0 Calma -- -- -- 1010.8 0.4 95
2018-05-27 01:00:00 13.5 0 Calma 8 Sur 0 1010.8 1.1 94
2018-05-27 00:00:00 13.9 6 Este 11 Este 0 1010.4 1 93
2018-05-26 23:00:00 14.9 0 Calma 8 Sudeste 0 1010.4 1.3 91
2018-05-26 22:00:00 16 2 Norte 11 Norte 0 1009.7 1.6 86
2018-05-26 21:00:00 17.4 6 Noroeste 15 Norte 0 1009.4 0.6 78
2018-05-26 20:00:00 17.8 9 Noroeste 21 Norte 0 1009.1 0.4 71
2018-05-26 19:00:00 20 9 Norte 22 Norte 0 1008.1 0.6 70
2018-05-26 18:00:00 19.6 10 Norte 30 Norte 0 1008.8 2.1 74
2018-05-26 17:00:00 18.6 14 Noroeste 50 Noroeste 2 1008.7 1.8 83
2018-05-26 16:00:00 20.2 22 Noroeste 35 Noroeste 0 1007.5 -0.2 77
2018-05-26 15:00:00 21.3 8 Sudeste 13 Sudeste 0 1006.7 -0.4 71
2018-05-26 14:00:00 20.9 4 Este 26 Nordeste 0 1006.9 -0.5 69
2018-05-26 13:00:00 19.6 11 Sudeste 28 Este 0 1007.7 0.3 79
2018-05-26 12:00:00 17.9 8 Sudeste 22 Sudeste 0.4 1007.1 -0.5 92
2018-05-26 11:00:00 17.4 13 Este 21 Este 0.6 1007.4 -0.1 92
2018-05-26 10:00:00 17.6 6 Sudeste 15 Este 0 1007.4 -0.3 91
2018-05-26 09:00:00 16.5 10 Sudeste 13 Sudeste 0 1007.6 0 96
2018-05-26 08:00:00 16.3 5 Este 8 Este 0 1007.5 -0.2 97
2018-05-26 07:00:00 16 0 Calma -- -- 0 1007.7 -0.3 96
2018-05-26 06:00:00 16.3 5 Este -- -- -- 1007.6 -1 96
2018-05-26 05:00:00 16.2 2 Sudeste 8 Oeste 0 1007.7 -1.9 96
2018-05-26 04:00:00 16.4 7 Oeste 11 Oeste 0 1008 -1.6 96
2018-05-26 03:00:00 16.5 3 Oeste 8 Oeste 1.2 1008.6 -0.8 96
2018-05-26 02:00:00 16.6 0 Calma 5 Oeste 0 1009.6 0.3 96
2018-05-26 01:00:00 16.5 3 Oeste 13 Oeste 0 1009.6 1 96
2018-05-26 00:00:00 16.8 5 Oeste 17 Norte 0.4 1009.4 0.8 95
2018-05-25 23:00:00 17 10 Norte 21 Oeste 5.2 1009.3 0.9 93
2018-05-25 22:00:00 17.2 8 Noroeste 13 Noroeste 0 1008.6 -0.1 92
2018-05-25 21:00:00 17.5 10 Oeste 15 Oeste 0 1008.6 0 90
2018-05-25 20:00:00 17.8 11 Noroeste 15 Noroeste 0 1008.4 -0.3 88
2018-05-25 19:00:00 18.1 6 Oeste 17 Norte 0 1008.7 -0.2 87
2018-05-25 18:00:00 18.8 13 Noroeste 17 Noroeste 0 1008.6 -0.6 83
2018-05-25 17:00:00 20.5 8 Noroeste 17 Noroeste 0 1008.7 -1.2 76
2018-05-25 16:00:00 20.7 5 Noroeste 15 Oeste 0 1008.9 -1.7 78
2018-05-25 15:00:00 20.3 4 Norte 9 Norte 0 1009.2 -1.1 78
2018-05-25 14:00:00 19.4 3 Nordeste 13 Este 0 1009.9 -0.6 77
2018-05-25 13:00:00 18.5 6 Este 11 Este 0.1 1010.6 -- 88
2018-05-25 12:00:00 18.1 3 Nordeste 13 Nordeste 0.9 1010.3 -- 86
2018-05-25 11:00:00 18 9 Oeste -- -- -- 1010.5 -- 84
2018-05-25 10:00:00 -- -- -- -- -- -- -- -- --
2018-05-25 09:00:00 -- -- -- -- -- -- -- -- --
2018-05-25 08:00:00 -- -- -- -- -- -- -- -- --
2018-05-25 07:00:00 -- -- -- -- -- -- -- -- --
2018-05-25 06:00:00 -- -- -- -- -- -- -- -- --
2018-05-25 05:00:00 -- -- -- -- -- -- -- -- --
2018-05-25 04:00:00 -- -- -- -- -- -- -- -- --
2018-05-25 03:00:00 -- -- -- -- -- -- -- -- --
2018-05-25 02:00:00 17.6 3 Noroeste 15 Norte 0 1010.8 -1.1 93
2018-05-25 01:00:00 17.6 9 Noroeste 15 Norte 0 1011.6 0.6 93
2018-05-25 00:00:00 17.6 6 Noroeste 17 Noroeste 0 1011.9 1.3 91
2018-05-24 23:00:00 17.7 11 Noroeste 18 Noroeste 0 1011.9 1.7 93
2018-05-24 22:00:00 17.7 12 Oeste 21 Noroeste 0 1011 0.7 92
2018-05-24 21:00:00 17.8 15 Noroeste 28 Noroeste 0 1010.6 0.2 91
2018-05-24 20:00:00 18.4 15 Noroeste 22 Noroeste 0.2 1010.2 0.4 92
2018-05-24 19:00:00 18.4 12 Noroeste 26 Oeste 0.2 1010.3 0 91
2018-05-24 18:00:00 19.4 16 Oeste 28 Oeste 0 1010.4 -0.5 83
2018-05-24 17:00:00 22 20 Oeste 32 Oeste 0 1009.8 -1.1 75
2018-05-24 16:00:00 22.4 20 Oeste 30 Oeste 0 1010.3 -1.1 74
2018-05-24 15:00:00 22 21 Oeste 32 Oeste 0 1010.9 -0.5 74
2018-05-24 14:00:00 22.3 22 Oeste 32 Oeste 0 1010.9 -0.7 74
2018-05-24 13:00:00 23 13 Oeste 24 Noroeste 0 1011.4 -0.6 72
2018-05-24 12:00:00 22.8 6 Noroeste 17 Noroeste 0 1011.4 -0.6 68
2018-05-24 11:00:00 21.6 5 Noroeste 13 Norte 0 1011.6 -0.3 70
2018-05-24 10:00:00 20.3 4 Este 11 Nordeste 0 1012 0.5 74
2018-05-24 09:00:00 18.4 2 Este 8 Nordeste 0 1012 0.6 82
2018-05-24 08:00:00 16 3 Este 17 Este 0 1011.9 0.9 92
2018-05-24 07:00:00 15.9 5 Este 9 Este 0 1011.5 0.3 91
2018-05-24 06:00:00 16.6 5 Oeste 9 Noroeste 0 1011.4 -0.7 89
2018-05-24 05:00:00 16.9 2 Sur 18 Este 0 1011 -- 88
2018-05-24 04:00:00 16.8 9 Sudeste 17 Este 0 1011.2 -2.3 89
2018-05-24 03:00:00 16.8 12 Este 15 Este 0 1012.1 -1.1 90
2018-05-24 02:00:00 -- -- -- -- -- -- -- -- --
2018-05-24 01:00:00 17.2 8 Noroeste 13 Noroeste 0 1013.5 1.8 90
2018-05-24 00:00:00 17.2 9 Noroeste 15 Noroeste 0 1013.2 2 92
2018-05-23 23:00:00 17.6 9 Oeste 17 Noroeste 0 1012.5 1 87
2018-05-23 22:00:00 18.2 9 Oeste 17 Oeste 0 1011.7 0.2 81
2018-05-23 21:00:00 19.6 10 Oeste 17 Noroeste 0 1011.2 0 71
2018-05-23 20:00:00 20 9 Oeste 21 Noroeste 0 1011.5 0.3 70
2018-05-23 19:00:00 21.5 15 Oeste 22 Noroeste 0 1011.5 -0.4 62
2018-05-23 18:00:00 23.5 3 Oeste 17 Este 0 1011.2 -1 51
2018-05-23 17:00:00 23.5 8 Sudeste 22 Sudeste 0 1011.2 -1.6 52
2018-05-23 16:00:00 21.4 7 Sur 24 Sur 0 1011.9 -1.3 60
2018-05-23 15:00:00 21.6 11 Sur 21 Sur 0 1012.2 -1.1 55
2018-05-23 14:00:00 22.2 12 Sur 22 Sur 0 1012.8 -0.7 55
2018-05-23 13:00:00 22.5 6 Nordeste 11 Nordeste 0 1013.2 -0.3 59
2018-05-23 12:00:00 21.1 4 Este 11 Sudeste 0 1013.3 -0.2 63
2018-05-23 11:00:00 18.6 4 Este 13 Nordeste 0 1013.5 0.2 72
2018-05-23 10:00:00 17.1 4 Nordeste 8 Nordeste 0 1013.5 0.6 77
2018-05-23 09:00:00 15 4 Sudeste 11 Nordeste 0 1013.5 0.9 84
2018-05-23 08:00:00 14 3 Sudeste 11 Este 0 1013.3 0.6 88
2018-05-23 07:00:00 12.8 7 Este 11 Este 0 1012.9 -0.2 91
2018-05-23 06:00:00 13.3 6 Este 13 Sudeste 0 1012.6 -0.8 91
2018-05-23 05:00:00 13.3 8 Sudeste 13 Sudeste 0 1012.7 -1 91
2018-05-23 04:00:00 14.2 9 Este 13 Este 0 1013.1 -0.5 94
2018-05-23 03:00:00 14.1 8 Sudeste 13 Este 0 1013.4 -0.1 92
2018-05-23 02:00:00 13.6 6 Sudeste 11 Este 0 1013.7 0.7 91
2018-05-23 01:00:00 14.4 4 Este 5 Este 0 1013.6 1.4 91
2018-05-23 00:00:00 15.1 0 Calma 8 Nordeste 0 1013.5 1.8 89
2018-05-22 23:00:00 15.8 3 Sudeste 17 Norte 0 1013 1.6 89
2018-05-22 22:00:00 17 9 Oeste 13 Oeste 0 1012.2 1 86
2018-05-22 21:00:00 18.5 10 Noroeste 18 Noroeste 0 1011.7 0.8 79
2018-05-22 20:00:00 20.1 15 Noroeste 21 Noroeste 0 1011.4 0.6 70
2018-05-22 19:00:00 21.5 10 Norte 24 Noroeste 0 1011.2 0.3 55
2018-05-22 18:00:00 22.2 15 Noroeste 24 Noroeste 0 1010.9 -0.1 59
2018-05-22 17:00:00 22.4 16 Noroeste 24 Oeste 0 1010.8 -0.4 63
2018-05-22 16:00:00 22.3 18 Noroeste 28 Noroeste 0 1010.9 -0.2 60
2018-05-22 15:00:00 22.6 16 Noroeste 26 Norte 0 1011 0 56
2018-05-22 14:00:00 22.5 15 Noroeste 24 Oeste 0 1011.2 0.4 51
2018-05-22 13:00:00 22 13 Noroeste 22 Noroeste 0 1011.1 0.1 52
2018-05-22 12:00:00 21.1 8 Oeste 17 Oeste 0 1011 0.1 56
2018-05-22 11:00:00 19.6 4 Oeste 11 Sudeste 0 1010.8 0.2 63
2018-05-22 10:00:00 17.2 6 Este 18 Este 0 1011 0.9 74
2018-05-22 09:00:00 14.2 10 Este 21 Este 0 1010.9 1.2 84
2018-05-22 08:00:00 11.4 9 Este 22 Este 0 1010.6 1.1 93
2018-05-22 07:00:00 10.3 10 Este 32 Este 0 1010.1 0.6 94
2018-05-22 06:00:00 10.5 9 Este 13 Este 0 1009.7 0.2 94
2018-05-22 05:00:00 10.7 7 Sudeste 9 Sudeste 0 1009.5 -0.1 92
2018-05-22 04:00:00 11.3 0 Calma -- -- 0 1009.5 -0.2 92
2018-05-22 03:00:00 11.8 6 Sudeste 11 Este 0 1009.5 -0.2 91
2018-05-22 02:00:00 12.1 8 Este 11 Este 0 1009.6 0.4 90
2018-05-22 01:00:00 12.7 9 Sudeste 11 Sudeste 0 1009.7 1.1 87
2018-05-22 00:00:00 13.8 6 Sudeste 9 Este 0 1009.7 2 86